createdAt,value
2019-04-26T00:02:18.390Z,75.00
2019-04-26T00:04:47.092Z,74.60
2019-04-26T00:07:16.614Z,74.60
2019-04-26T00:09:45.623Z,74.70
2019-04-26T00:12:16.390Z,75.50
2019-04-26T00:14:58.491Z,75.30
2019-04-26T00:17:28.739Z,75.80
2019-04-26T00:19:57.397Z,75.90
2019-04-26T00:22:25.819Z,75.80
2019-04-26T00:24:54.279Z,75.60
2019-04-26T00:27:22.707Z,75.20
2019-04-26T00:29:51.143Z,75.70
2019-04-26T00:32:19.583Z,75.40
2019-04-26T00:34:48.023Z,75.70
2019-04-26T00:37:16.443Z,75.70
2019-04-26T00:39:44.892Z,75.30
2019-04-26T00:42:14.609Z,75.70
2019-04-26T00:44:43.876Z,75.60
2019-04-26T00:47:14.207Z,75.60
2019-04-26T00:49:44.331Z,75.60
2019-04-26T00:52:14.622Z,75.90
2019-04-26T00:54:45.357Z,76.10
2019-04-26T00:57:15.972Z,75.90
2019-04-26T00:59:44.514Z,76.10
2019-04-26T01:02:23.591Z,76.50
2019-04-26T01:04:52.039Z,76.50
2019-04-26T01:07:21.149Z,76.40
2019-04-26T01:09:49.682Z,76.80
2019-04-26T01:12:18.104Z,76.60
2019-04-26T01:14:46.549Z,76.70
2019-04-26T01:17:16.151Z,76.50
2019-04-26T01:19:48.193Z,76.40
2019-04-26T01:22:19.760Z,77.10
2019-04-26T01:24:50.365Z,77.20
2019-04-26T01:27:21.876Z,77.00
2019-04-26T01:30:11.171Z,77.00
2019-04-26T01:32:42.769Z,77.10
2019-04-26T01:35:11.751Z,77.20
2019-04-26T01:37:42.187Z,77.10
2019-04-26T01:40:12.326Z,77.30
2019-04-26T01:42:47.482Z,77.60
2019-04-26T01:45:27.924Z,77.80
2019-04-26T01:47:59.648Z,77.60
2019-04-26T01:50:29.822Z,78.50
2019-04-26T01:52:59.187Z,78.20
2019-04-26T01:55:31.212Z,78.70
2019-04-26T01:58:02.814Z,78.70
2019-04-26T02:00:47.844Z,78.70
2019-04-26T02:03:21.550Z,78.60
2019-04-26T02:05:51.638Z,78.80
2019-04-26T02:08:20.062Z,78.80
2019-04-26T02:10:48.571Z,79.00
2019-04-26T02:13:17.132Z,79.40
2019-04-26T02:15:45.584Z,79.80
2019-04-26T02:18:14.092Z,79.80
2019-04-26T02:20:53.316Z,79.50
2019-04-26T02:23:30.056Z,79.50
2019-04-26T02:26:00.484Z,79.80
2019-04-26T02:28:28.909Z,80.20
2019-04-26T02:30:57.471Z,80.40
2019-04-26T02:33:27.453Z,80.80
2019-04-26T02:35:56.068Z,81.40
2019-04-26T02:38:25.780Z,82.10
2019-04-26T02:40:54.843Z,82.70
2019-04-26T02:43:26.478Z,83.20
2019-04-26T02:45:57.525Z,83.60
2019-04-26T02:48:32.187Z,83.60
2019-04-26T02:51:06.833Z,83.80
2019-04-26T02:53:52.688Z,83.80
2019-04-26T02:56:24.191Z,83.60
2019-04-26T02:59:01.459Z,84.00
2019-04-26T03:01:32.413Z,84.10
2019-04-26T03:04:00.381Z,84.60
2019-04-26T03:06:32.762Z,84.50
2019-04-26T03:09:06.069Z,84.70
2019-04-26T03:12:08.809Z,84.70
2019-04-26T03:14:42.054Z,84.60
2019-04-26T03:17:13.081Z,85.00
2019-04-26T03:23:03.406Z,85.50
2019-04-26T03:25:42.223Z,85.60
2019-04-26T03:28:25.724Z,85.60
2019-04-26T03:31:21.330Z,85.80
2019-04-26T03:34:22.006Z,85.50
2019-04-26T03:37:20.990Z,85.70
2019-04-26T03:39:55.744Z,85.60
2019-04-26T03:42:35.159Z,85.60
2019-04-26T03:45:18.433Z,85.60
2019-04-26T03:47:52.876Z,85.50
2019-04-26T03:50:30.392Z,85.20
2019-04-26T03:53:12.452Z,85.10
2019-04-26T03:55:45.592Z,84.70
2019-04-26T03:59:03.729Z,84.70
2019-04-26T04:01:37.269Z,84.40
2019-04-26T04:04:25.609Z,84.70
2019-04-26T04:07:04.234Z,84.90
2019-04-26T04:09:28.279Z,85.20
2019-04-26T04:12:15.867Z,85.80
2019-04-26T04:14:50.159Z,85.30
2019-04-26T04:17:26.256Z,85.00
2019-04-26T04:20:19.889Z,85.10
2019-04-26T04:23:31.062Z,84.80
2019-04-26T04:26:02.564Z,84.70
2019-04-26T04:28:42.066Z,84.70
2019-04-26T04:31:16.104Z,84.40
2019-04-26T04:33:56.663Z,84.40
2019-04-26T04:36:28.175Z,84.20
2019-04-26T04:39:14.708Z,84.00
2019-04-26T04:41:49.117Z,84.10
2019-04-26T04:44:30.648Z,84.00
2019-04-26T04:47:22.923Z,84.10
2019-04-26T04:49:45.028Z,83.80
2019-04-26T04:52:35.560Z,83.60
2019-04-26T04:55:28.403Z,84.60
2019-04-26T04:58:09.155Z,83.80
2019-04-26T05:01:24.892Z,83.90
2019-04-26T05:04:03.810Z,84.10
2019-04-26T05:07:17.376Z,83.90
2019-04-26T05:09:57.796Z,84.40
2019-04-26T05:12:29.337Z,84.90
2019-04-26T05:15:19.071Z,84.90
2019-04-26T05:18:02.233Z,85.20
2019-04-26T05:20:33.784Z,84.80
2019-04-26T05:23:24.631Z,85.00
2019-04-26T05:26:06.406Z,85.70
2019-04-26T05:29:02.244Z,84.20
2019-04-26T05:31:39.165Z,84.10
2019-04-26T05:34:12.054Z,83.90
2019-04-26T05:36:55.596Z,83.70
2019-04-26T05:39:27.306Z,83.40
2019-04-26T05:42:14.653Z,82.90
2019-04-26T05:45:08.946Z,82.90
2019-04-26T05:48:01.486Z,82.60
2019-04-26T05:50:49.182Z,82.50
2019-04-26T05:53:55.708Z,82.00
2019-04-26T05:56:56.262Z,81.20
2019-04-26T05:59:46.160Z,81.00
2019-04-26T06:02:55.371Z,81.10
2019-04-26T06:05:52.403Z,80.00
2019-04-26T06:08:36.884Z,79.30
2019-04-26T06:11:22.053Z,79.50
2019-04-26T06:14:06.844Z,78.50
2019-04-26T06:16:54.854Z,78.30
2019-04-26T06:19:53.245Z,77.50
2019-04-26T06:22:27.476Z,76.90
2019-04-26T06:25:09.574Z,76.00
2019-04-26T06:27:51.938Z,76.20
2019-04-26T06:30:25.293Z,76.10
2019-04-26T06:33:06.267Z,75.00
2019-04-26T06:35:39.025Z,74.80
2019-04-26T06:38:43.744Z,74.40
2019-04-26T06:41:30.020Z,75.70
2019-04-26T06:44:05.849Z,75.90
2019-04-26T06:46:50.591Z,77.20
2019-04-26T06:49:23.759Z,77.50
2019-04-26T06:52:00.810Z,77.50
2019-04-26T06:54:48.824Z,77.20
2019-04-26T06:57:54.672Z,76.90
2019-04-26T07:00:27.197Z,77.80
2019-04-26T07:03:23.049Z,77.10
2019-04-26T07:05:58.937Z,76.10
2019-04-26T07:08:39.301Z,75.50
2019-04-26T07:11:49.993Z,75.30
2019-04-26T07:14:51.921Z,75.40
2019-04-26T07:17:28.523Z,73.20
2019-04-26T07:20:24.828Z,73.00
2019-04-26T07:22:57.982Z,72.20
2019-04-26T07:25:45.833Z,70.50
2019-04-26T07:28:36.693Z,70.80
2019-04-26T07:31:24.715Z,71.60
2019-04-26T07:34:22.293Z,69.80
2019-04-26T07:37:11.302Z,67.10
2019-04-26T07:40:11.607Z,66.30
2019-04-26T07:42:50.335Z,66.70
2019-04-26T07:45:46.153Z,67.10
2019-04-26T07:48:26.265Z,67.40
2019-04-26T07:51:18.826Z,67.40
2019-04-26T07:54:24.540Z,66.60
2019-04-26T07:57:03.076Z,66.40
2019-04-26T07:59:55.662Z,66.50
2019-04-26T08:02:43.843Z,65.40
2019-04-26T08:05:40.952Z,66.80
2019-04-26T08:08:12.845Z,66.70
2019-04-26T08:10:44.472Z,67.30
2019-04-26T08:13:15.997Z,69.20
2019-04-26T08:16:06.852Z,67.00
2019-04-26T08:18:46.009Z,66.10
2019-04-26T08:21:25.057Z,66.30
2019-04-26T08:24:16.723Z,66.30
2019-04-26T08:26:48.729Z,66.70
2019-04-26T08:29:20.258Z,67.30
2019-04-26T08:31:53.590Z,66.70
2019-04-26T08:34:29.747Z,66.00
2019-04-26T08:37:01.929Z,65.60
2019-04-26T08:39:44.991Z,64.20
2019-04-26T08:42:05.138Z,63.10
2019-04-26T08:44:52.479Z,62.90
2019-04-26T08:47:26.337Z,62.00
2019-04-26T08:49:55.222Z,63.10
2019-04-26T08:52:27.893Z,63.00
2019-04-26T08:54:58.745Z,61.50
2019-04-26T08:57:30.339Z,61.00
2019-04-26T09:00:02.314Z,59.70
2019-04-26T09:02:40.259Z,59.60
2019-04-26T09:05:13.257Z,60.50
2019-04-26T09:07:44.804Z,60.20
2019-04-26T09:10:16.225Z,60.30
2019-04-26T09:12:48.093Z,60.50
2019-04-26T09:15:19.631Z,60.90
2019-04-26T09:17:48.084Z,60.20
2019-04-26T09:20:28.161Z,59.70
2019-04-26T09:23:04.840Z,59.20
2019-04-26T09:25:39.030Z,58.30
2019-04-26T09:28:18.625Z,57.20
2019-04-26T09:31:04.816Z,57.30
2019-04-26T09:33:45.139Z,55.80
2019-04-26T09:36:13.765Z,56.40
2019-04-26T09:38:42.189Z,56.40
2019-04-26T09:41:10.662Z,56.60
2019-04-26T09:43:46.710Z,55.90
2019-04-26T09:46:16.860Z,56.30
2019-04-26T09:48:46.993Z,56.80
2019-04-26T09:51:15.441Z,56.10
2019-04-26T09:53:44.768Z,55.90
2019-04-26T09:56:13.318Z,55.70
2019-04-26T09:58:41.786Z,56.00
2019-04-26T10:01:10.367Z,55.60
2019-04-26T10:03:38.780Z,56.10
2019-04-26T10:06:08.279Z,55.50
2019-04-26T10:08:37.013Z,55.10
2019-04-26T10:11:09.605Z,55.20
2019-04-26T10:13:42.130Z,56.40
2019-04-26T10:16:18.096Z,57.00
2019-04-26T10:18:48.177Z,57.30
2019-04-26T10:21:16.607Z,57.80
2019-04-26T10:23:45.048Z,57.80
2019-04-26T10:26:13.636Z,57.00
2019-04-26T10:28:42.060Z,55.90
2019-04-26T10:31:13.447Z,55.80
2019-04-26T10:33:40.988Z,55.30
2019-04-26T10:36:09.432Z,54.40
2019-04-26T10:38:37.863Z,54.30
2019-04-26T10:41:06.677Z,53.90
2019-04-26T10:43:35.096Z,54.60
2019-04-26T10:46:03.726Z,55.70
2019-04-26T10:48:32.163Z,55.10
2019-04-26T10:51:03.275Z,55.00
2019-04-26T10:53:35.396Z,53.90
2019-04-26T10:56:08.723Z,52.80
2019-04-26T10:58:38.792Z,52.40
2019-04-26T11:01:10.612Z,52.10
2019-04-26T11:03:39.031Z,51.20
2019-04-26T11:06:07.470Z,51.40
2019-04-26T11:08:35.967Z,51.60
2019-04-26T11:11:06.407Z,51.90
2019-04-26T11:13:34.848Z,52.20
2019-04-26T11:16:07.236Z,52.60
2019-04-26T11:18:33.519Z,52.00
2019-04-26T11:21:01.941Z,51.60
2019-04-26T11:23:30.631Z,51.00
2019-04-26T11:26:01.598Z,50.80
2019-04-26T11:28:29.223Z,50.00
2019-04-26T11:30:57.779Z,50.60
2019-04-26T11:33:26.224Z,50.60
2019-04-26T11:35:54.652Z,49.90
2019-04-26T11:38:26.820Z,51.20
2019-04-26T11:41:05.409Z,49.20
2019-04-26T11:43:23.429Z,48.70
2019-04-26T11:46:03.516Z,48.40
2019-04-26T11:48:25.502Z,48.00
2019-04-26T11:50:53.654Z,46.60
2019-04-26T11:53:22.292Z,46.50
2019-04-26T11:55:50.724Z,46.60
2019-04-26T11:58:22.502Z,45.70
2019-04-26T12:00:50.935Z,44.00
2019-04-26T12:03:21.153Z,43.00
2019-04-26T12:05:51.159Z,43.00
2019-04-26T12:08:21.247Z,42.50
2019-04-26T12:10:49.759Z,41.50
2019-04-26T12:13:21.281Z,41.40
2019-04-26T12:15:48.531Z,40.80
2019-04-26T12:18:17.000Z,40.30
2019-04-26T12:20:45.463Z,39.80
2019-04-26T12:23:20.367Z,39.00
2019-04-26T12:25:48.247Z,38.80
2019-04-26T12:28:16.980Z,38.70
2019-04-26T12:30:45.399Z,38.50
2019-04-26T12:33:13.863Z,38.30
2019-04-26T12:35:42.291Z,39.70
2019-04-26T12:38:10.732Z,37.40
2019-04-26T12:40:42.279Z,36.00
2019-04-26T12:43:09.382Z,35.80
2019-04-26T12:45:39.440Z,36.70
2019-04-26T12:48:12.276Z,34.90
2019-04-26T12:50:39.683Z,33.90
2019-04-26T12:53:08.372Z,33.00
2019-04-26T12:55:36.796Z,32.10
2019-04-26T12:58:05.241Z,31.30
2019-04-26T13:00:37.506Z,33.30
2019-04-26T13:03:05.412Z,35.20
2019-04-26T13:05:33.908Z,38.50
2019-04-26T13:08:02.350Z,39.20
2019-04-26T13:10:41.511Z,38.30
2019-04-26T13:13:17.471Z,36.40
2019-04-26T13:16:02.704Z,37.70
2019-04-26T13:18:31.803Z,40.40
2019-04-26T13:21:03.077Z,43.30
2019-04-26T13:23:31.279Z,44.70
2019-04-26T13:26:01.435Z,45.20
2019-04-26T13:28:30.241Z,45.80
2019-04-26T13:31:01.814Z,46.30
2019-04-26T13:33:29.213Z,46.20
2019-04-26T13:36:04.901Z,47.30
2019-04-26T13:38:28.001Z,47.10
2019-04-26T13:40:59.719Z,47.80
2019-04-26T13:43:28.474Z,47.50
2019-04-26T13:45:58.413Z,47.70
2019-04-26T13:48:45.392Z,48.60
2019-04-26T13:51:18.817Z,48.80
2019-04-26T13:53:47.265Z,47.60
2019-04-26T13:56:15.712Z,46.00
2019-04-26T13:58:44.147Z,43.90
2019-04-26T14:01:14.670Z,44.10
2019-04-26T14:03:43.200Z,44.20
2019-04-26T14:06:11.640Z,41.50
2019-04-26T14:08:40.073Z,41.70
2019-04-26T14:11:08.515Z,40.50
2019-04-26T14:13:36.944Z,41.50
2019-04-26T14:16:05.449Z,39.60
2019-04-26T14:18:34.671Z,37.10
2019-04-26T14:21:04.120Z,34.80
2019-04-26T14:23:50.794Z,33.00
2019-04-26T14:26:30.240Z,31.90
2019-04-26T14:28:59.710Z,31.60
2019-04-26T14:31:28.273Z,30.70
2019-04-26T14:33:56.695Z,31.90
2019-04-26T14:36:26.798Z,33.30
2019-04-26T14:39:05.363Z,32.90
2019-04-26T14:41:25.484Z,33.80
2019-04-26T14:43:56.790Z,33.30
2019-04-26T14:46:24.183Z,32.10
2019-04-26T14:49:01.459Z,31.10
2019-04-26T14:51:22.778Z,30.00
2019-04-26T14:53:51.211Z,31.10
2019-04-26T14:56:19.648Z,30.10
2019-04-26T14:58:48.087Z,29.50
2019-04-26T15:01:35.251Z,29.30
2019-04-26T15:04:23.140Z,28.90
2019-04-26T15:06:57.896Z,28.40
2019-04-26T15:09:29.846Z,27.80
2019-04-26T15:11:59.515Z,27.70
2019-04-26T15:14:23.858Z,27.60
2019-04-26T15:16:52.335Z,27.60
2019-04-26T15:19:22.511Z,27.50
2019-04-26T15:21:53.889Z,27.20
2019-04-26T15:24:22.643Z,27.20
2019-04-26T15:26:51.474Z,28.00
2019-04-26T15:29:21.357Z,28.00
2019-04-26T15:31:53.768Z,28.70
2019-04-26T15:34:23.630Z,28.50
2019-04-26T15:36:50.383Z,29.00
2019-04-26T15:39:26.258Z,29.50
2019-04-26T15:42:08.591Z,31.10
2019-04-26T15:44:38.651Z,33.50
2019-04-26T15:47:08.727Z,35.10
2019-04-26T15:49:38.808Z,37.50
2019-04-26T15:52:07.310Z,40.10
2019-04-26T15:54:35.737Z,41.00
2019-04-26T15:57:06.490Z,43.40
2019-04-26T15:59:34.390Z,44.40
2019-04-26T16:02:03.001Z,44.90
2019-04-26T16:04:32.391Z,45.50
2019-04-26T16:07:02.467Z,46.90
2019-04-26T16:09:32.502Z,48.00
2019-04-26T16:12:03.374Z,48.40
2019-04-26T16:14:36.574Z,50.00
2019-04-26T16:17:03.176Z,51.10
2019-04-26T16:19:31.725Z,52.20
2019-04-26T16:22:00.167Z,52.90
2019-04-26T16:24:29.115Z,54.70
2019-04-26T16:26:57.695Z,55.50
2019-04-26T16:29:27.775Z,56.70
2019-04-26T16:32:16.910Z,57.20
2019-04-26T16:34:47.652Z,58.00
2019-04-26T16:37:22.017Z,59.10
2019-04-26T16:39:48.554Z,59.70
2019-04-26T16:42:16.336Z,60.00
2019-04-26T16:44:45.130Z,60.90
2019-04-26T16:47:13.713Z,61.40
2019-04-26T16:49:45.171Z,62.10
2019-04-26T16:52:14.063Z,62.90
2019-04-26T16:54:42.635Z,63.50
2019-04-26T16:57:12.322Z,64.20
2019-04-26T16:59:49.012Z,64.10
2019-04-26T17:02:15.616Z,65.00
2019-04-26T17:04:43.410Z,65.00
2019-04-26T17:07:13.298Z,65.30
2019-04-26T17:09:57.100Z,67.00
2019-04-26T17:12:15.066Z,67.80
2019-04-26T17:14:47.824Z,70.40
2019-04-26T17:17:13.988Z,72.20
2019-04-26T17:19:43.269Z,73.30
2019-04-26T17:22:15.837Z,74.40
2019-04-26T17:24:53.221Z,76.30
2019-04-26T17:27:23.062Z,77.50
2019-04-26T17:29:52.736Z,78.90
2019-04-26T17:32:23.252Z,79.80
2019-04-26T17:34:54.083Z,80.40
2019-04-26T17:37:26.196Z,81.20
2019-04-26T17:39:55.255Z,82.10
2019-04-26T17:42:25.207Z,82.40
2019-04-26T17:44:52.434Z,83.30
2019-04-26T17:47:20.881Z,83.90
2019-04-26T17:49:50.469Z,82.80
2019-04-26T17:52:20.382Z,85.00
2019-04-26T17:54:49.664Z,89.70
2019-04-26T17:57:32.010Z,90.30
2019-04-26T17:59:51.376Z,91.50
2019-04-26T18:02:39.902Z,91.70
2019-04-26T18:04:58.863Z,93.00
2019-04-26T18:07:39.272Z,93.50
2019-04-26T18:09:50.651Z,94.10
2019-04-26T18:12:20.643Z,95.10
2019-04-26T18:14:49.212Z,95.50
2019-04-26T18:17:19.304Z,96.50
2019-04-26T18:19:49.414Z,97.70
2019-04-26T18:22:28.386Z,99.00
2019-04-26T18:25:14.928Z,99.30
2019-04-26T18:27:54.549Z,99.50
2019-04-26T18:30:23.711Z,99.90
2019-04-26T18:32:52.174Z,99.90
2019-04-26T18:35:20.635Z,99.90
2019-04-26T18:37:49.077Z,99.90
2019-04-26T18:40:20.449Z,99.90
2019-04-26T18:42:47.769Z,99.90
2019-04-26T18:45:21.405Z,99.90
2019-04-26T18:47:46.584Z,99.90
2019-04-26T18:50:15.866Z,99.90
2019-04-26T18:52:52.693Z,99.90
2019-04-26T18:55:29.035Z,99.90
2019-04-26T18:57:59.493Z,99.90
2019-04-26T19:00:26.537Z,99.90
2019-04-26T19:02:55.467Z,99.90
2019-04-26T19:05:29.774Z,99.90
2019-04-26T19:07:54.258Z,99.90
2019-04-26T19:10:25.690Z,99.90
2019-04-26T19:12:56.483Z,99.90
2019-04-26T19:15:25.124Z,99.90
2019-04-26T19:18:07.378Z,99.90
2019-04-26T19:20:43.336Z,99.90
2019-04-26T19:23:12.271Z,99.90
2019-04-26T19:25:41.401Z,99.90
2019-04-26T19:28:10.023Z,99.90
2019-04-26T19:30:39.814Z,99.90
2019-04-26T19:33:10.067Z,99.90
2019-04-26T19:35:39.341Z,99.90
2019-04-26T19:38:13.355Z,99.90
2019-04-26T19:40:42.861Z,99.90
2019-04-26T19:43:09.491Z,99.90
2019-04-26T19:45:45.740Z,99.90
2019-04-26T19:48:20.445Z,99.90
2019-04-26T19:50:50.531Z,99.90
2019-04-26T19:53:24.852Z,99.90
2019-04-26T19:56:11.509Z,99.90
2019-04-26T19:58:42.165Z,99.90
2019-04-26T20:01:12.257Z,99.90
2019-04-26T20:03:43.030Z,99.90
2019-04-26T20:06:14.165Z,99.90
2019-04-26T20:14:19.170Z,99.90
2019-04-26T20:16:48.278Z,99.90
2019-04-26T20:19:18.018Z,99.90
2019-04-26T20:21:49.708Z,99.90
2019-04-26T20:24:18.241Z,99.90
2019-04-26T20:26:48.639Z,99.90
2019-04-26T20:29:17.103Z,99.90
2019-04-26T20:31:52.066Z,99.90
2019-04-26T20:34:21.847Z,99.90
2019-04-26T20:36:52.032Z,99.90
2019-04-26T20:39:23.512Z,99.90
2019-04-26T20:42:01.161Z,99.90
2019-04-26T20:44:23.928Z,99.90
2019-04-26T20:46:51.963Z,99.90
2019-04-26T20:49:21.813Z,99.90
2019-04-26T20:51:51.823Z,99.90
2019-04-26T20:54:22.345Z,99.90
2019-04-26T20:56:55.311Z,99.90
2019-04-26T20:59:23.413Z,99.90
2019-04-26T21:02:03.340Z,99.90
2019-04-26T21:04:35.057Z,99.90
2019-04-26T21:06:51.750Z,99.90
2019-04-26T21:09:21.875Z,99.90
2019-04-26T21:11:51.663Z,99.90
2019-04-26T21:14:21.368Z,99.90
2019-04-26T21:16:50.584Z,99.90
2019-04-26T21:19:20.206Z,99.90
2019-04-26T21:21:50.410Z,99.90
2019-04-26T21:24:23.159Z,99.90
2019-04-26T21:26:54.741Z,99.90
2019-04-26T21:29:41.668Z,99.90
2019-04-26T21:32:51.506Z,99.90
2019-04-26T21:35:36.651Z,99.90
2019-04-26T21:38:09.779Z,99.90
2019-04-26T21:40:39.853Z,99.90
2019-04-26T21:43:08.308Z,99.90
2019-04-26T21:45:36.753Z,99.90
2019-04-26T21:48:06.946Z,99.90
2019-04-26T21:50:38.727Z,99.90
2019-04-26T21:53:07.040Z,99.90
2019-04-26T21:55:38.752Z,99.90
2019-04-26T21:58:05.708Z,99.90
2019-04-26T22:00:35.828Z,99.90
2019-04-26T22:03:07.830Z,99.90
2019-04-26T22:05:35.291Z,99.90
2019-04-26T22:08:04.037Z,99.90
2019-04-26T22:10:43.732Z,99.90
2019-04-26T22:13:11.835Z,99.90
2019-04-26T22:15:41.898Z,99.90
2019-04-26T22:18:21.183Z,99.90
2019-04-26T22:20:53.998Z,99.90
2019-04-26T22:26:08.374Z,99.90
2019-04-26T22:28:35.977Z,99.90
2019-04-26T22:31:08.529Z,99.90
2019-04-26T22:33:35.489Z,99.90
2019-04-26T22:36:04.162Z,99.90
2019-04-26T22:38:34.006Z,99.90
2019-04-26T22:41:03.129Z,99.90
2019-04-26T22:43:39.340Z,99.90
2019-04-26T22:46:18.645Z,99.90
2019-04-26T22:48:46.777Z,99.90
2019-04-26T22:51:15.275Z,99.90
2019-04-26T22:53:43.722Z,99.90
2019-04-26T22:56:13.384Z,99.90
2019-04-26T22:58:44.118Z,99.90
2019-04-26T23:01:12.746Z,99.90
2019-04-26T23:03:46.180Z,99.90
2019-04-26T23:06:30.686Z,99.90
2019-04-26T23:08:59.120Z,99.90
2019-04-26T23:11:27.611Z,99.90
2019-04-26T23:13:57.755Z,99.90
2019-04-26T23:16:33.777Z,99.90
2019-04-26T23:19:09.822Z,99.90
2019-04-26T23:21:44.261Z,99.90
2019-04-26T23:24:31.827Z,99.90
2019-04-26T23:27:00.268Z,99.90
2019-04-26T23:29:28.707Z,99.90
2019-04-26T23:31:57.139Z,99.90
2019-04-26T23:34:25.573Z,99.90
2019-04-26T23:36:54.153Z,99.90
2019-04-26T23:39:22.849Z,99.90
2019-04-26T23:41:53.947Z,99.90
2019-04-26T23:44:41.928Z,99.90
2019-04-26T23:47:20.570Z,99.90
2019-04-26T23:49:40.509Z,99.90
2019-04-26T23:52:08.954Z,99.90
2019-04-26T23:54:37.395Z,99.90
2019-04-26T23:57:05.829Z,99.90
2019-04-26T23:59:34.349Z,99.90
